createdAt,value
2019-04-04T00:01:40.970Z,3.47
2019-04-04T00:04:08.529Z,2.95
2019-04-04T00:06:35.929Z,4.40
2019-04-04T00:09:03.331Z,3.72
2019-04-04T00:11:30.745Z,3.58
2019-04-04T00:13:58.151Z,3.67
2019-04-04T00:16:25.555Z,4.75
2019-04-04T00:18:52.952Z,4.80
2019-04-04T00:21:20.363Z,4.85
2019-04-04T00:23:47.774Z,2.97
2019-04-04T00:26:15.180Z,3.90
2019-04-04T00:28:44.082Z,4.60
2019-04-04T00:31:10.145Z,4.65
2019-04-04T00:33:37.610Z,5.75
2019-04-04T00:36:05.067Z,3.95
2019-04-04T00:38:32.492Z,3.25
2019-04-04T00:40:59.907Z,3.85
2019-04-04T00:43:27.307Z,3.55
2019-04-04T00:45:54.719Z,4.40
2019-04-04T00:48:22.131Z,4.00
2019-04-04T00:50:49.527Z,4.10
2019-04-04T00:53:16.934Z,3.80
2019-04-04T00:55:45.060Z,3.45
2019-04-04T00:58:11.742Z,3.53
2019-04-04T01:00:39.244Z,2.85
2019-04-04T01:03:06.627Z,2.95
2019-04-04T01:05:34.033Z,2.62
2019-04-04T01:08:01.420Z,1.95
2019-04-04T01:10:28.820Z,2.05
2019-04-04T01:12:56.231Z,2.42
2019-04-04T01:15:23.617Z,2.55
2019-04-04T01:17:51.020Z,2.50
2019-04-04T01:20:20.330Z,2.58
2019-04-04T01:22:45.829Z,2.42
2019-04-04T01:25:13.212Z,1.85
2019-04-04T01:27:40.602Z,1.20
2019-04-04T01:30:08.009Z,2.42
2019-04-04T01:32:35.399Z,1.30
2019-04-04T01:35:02.802Z,1.77
2019-04-04T01:37:30.205Z,1.65
2019-04-04T01:39:57.605Z,1.25
2019-04-04T01:42:25.029Z,1.25
2019-04-04T01:44:52.419Z,1.40
2019-04-04T01:47:19.838Z,1.50
2019-04-04T01:49:47.231Z,1.10
2019-04-04T01:52:14.643Z,1.52
2019-04-04T01:54:42.052Z,1.73
2019-04-04T01:57:09.448Z,1.52
2019-04-04T01:59:36.864Z,2.60
2019-04-04T02:02:04.265Z,2.97
2019-04-04T02:04:31.696Z,3.53
2019-04-04T02:06:59.672Z,3.95
2019-04-04T02:09:26.494Z,4.45
2019-04-04T02:11:53.896Z,3.90
2019-04-04T02:14:21.383Z,4.22
2019-04-04T02:16:51.306Z,3.75
2019-04-04T02:19:16.149Z,4.35
2019-04-04T02:21:43.558Z,3.42
2019-04-04T02:24:10.958Z,5.10
2019-04-04T02:26:38.351Z,5.03
2019-04-04T02:29:05.834Z,4.25
2019-04-04T02:31:34.768Z,3.80
2019-04-04T02:34:05.291Z,3.87
2019-04-04T02:36:29.581Z,3.92
2019-04-04T02:39:01.653Z,4.47
2019-04-04T02:41:29.065Z,3.78
2019-04-04T02:43:59.379Z,3.97
2019-04-04T02:46:23.885Z,3.72
2019-04-04T02:48:53.602Z,4.47
2019-04-04T02:51:18.746Z,4.40
2019-04-04T02:53:46.135Z,4.10
2019-04-04T02:56:13.830Z,4.50
2019-04-04T02:58:41.236Z,3.75
2019-04-04T03:01:08.669Z,4.80
2019-04-04T03:03:36.205Z,4.65
2019-04-04T03:06:03.485Z,3.67
2019-04-04T03:08:30.892Z,3.12
2019-04-04T03:10:58.319Z,4.30
2019-04-04T03:13:25.719Z,2.35
2019-04-04T03:15:53.119Z,3.10
2019-04-04T03:18:20.550Z,2.25
2019-04-04T03:20:50.407Z,2.15
2019-04-04T03:23:15.416Z,3.40
2019-04-04T03:25:44.663Z,3.17
2019-04-04T03:28:10.210Z,3.05
2019-04-04T03:30:37.617Z,3.35
2019-04-04T03:33:05.022Z,3.17
2019-04-04T03:35:32.437Z,2.47
2019-04-04T03:37:59.839Z,1.70
2019-04-04T03:40:27.237Z,2.80
2019-04-04T03:42:54.631Z,2.90
2019-04-04T03:45:26.246Z,3.58
2019-04-04T03:47:49.472Z,2.35
2019-04-04T03:50:16.865Z,3.10
2019-04-04T03:52:44.661Z,3.05
2019-04-04T03:55:11.683Z,2.25
2019-04-04T03:57:39.110Z,3.33
2019-04-04T04:00:07.477Z,2.53
2019-04-04T04:02:33.970Z,2.37
2019-04-04T04:05:02.092Z,1.77
2019-04-04T04:07:28.807Z,2.28
2019-04-04T04:09:59.297Z,2.45
2019-04-04T04:12:23.617Z,2.53
2019-04-04T04:14:53.716Z,1.87
2019-04-04T04:17:18.417Z,2.83
2019-04-04T04:19:45.828Z,2.10
2019-04-04T04:22:17.921Z,2.00
2019-04-04T04:24:40.639Z,2.17
2019-04-04T04:27:08.037Z,2.42
2019-04-04T04:29:35.440Z,2.50
2019-04-04T04:32:02.925Z,1.75
2019-04-04T04:34:33.049Z,1.48
2019-04-04T04:36:57.769Z,1.70
2019-04-04T04:39:25.174Z,1.67
2019-04-04T04:41:54.249Z,1.70
2019-04-04T04:44:20.003Z,2.05
2019-04-04T04:46:49.754Z,2.25
2019-04-04T04:49:14.826Z,2.80
2019-04-04T04:51:44.165Z,1.60
2019-04-04T04:54:09.693Z,2.42
2019-04-04T04:56:37.146Z,3.25
2019-04-04T04:59:04.559Z,4.00
2019-04-04T05:01:31.973Z,3.20
2019-04-04T05:04:02.326Z,3.08
2019-04-04T05:06:26.848Z,4.07
2019-04-04T05:08:54.239Z,3.50
2019-04-04T05:11:22.285Z,2.72
2019-04-04T05:16:23.363Z,2.45
2019-04-04T05:18:50.777Z,3.08
2019-04-04T05:21:24.752Z,2.10
2019-04-04T05:23:46.986Z,2.30
2019-04-04T05:26:13.033Z,1.67
2019-04-04T05:28:42.110Z,9.48
2019-04-04T05:31:08.021Z,4.97
2019-04-04T05:33:35.435Z,4.45
2019-04-04T05:36:04.883Z,3.45
2019-04-04T05:38:30.300Z,5.60
2019-04-04T05:40:57.713Z,2.53
2019-04-04T05:43:25.130Z,1.85
2019-04-04T05:45:52.687Z,1.48
2019-04-04T05:48:20.078Z,3.75
2019-04-04T05:50:47.519Z,7.35
2019-04-04T05:53:14.897Z,4.25
2019-04-04T05:55:42.446Z,4.60
2019-04-04T05:58:09.769Z,5.10
2019-04-04T06:00:37.184Z,2.55
2019-04-04T06:03:04.669Z,3.87
2019-04-04T06:05:32.081Z,1.83
2019-04-04T06:07:59.577Z,1.20
2019-04-04T06:10:26.974Z,6.37
2019-04-04T06:12:56.138Z,6.10
2019-04-04T06:15:21.936Z,11.00
2019-04-04T06:17:49.544Z,6.50
2019-04-04T06:20:17.307Z,2.65
2019-04-04T06:22:44.699Z,1.87
2019-04-04T06:25:12.134Z,1.75
2019-04-04T06:27:40.285Z,1.40
2019-04-04T06:30:06.979Z,1.45
2019-04-04T06:32:34.445Z,2.30
2019-04-04T06:35:01.873Z,2.35
2019-04-04T06:37:29.288Z,3.50
2019-04-04T06:39:58.888Z,1.08
2019-04-04T06:42:24.114Z,1.20
2019-04-04T06:44:54.108Z,1.98
2019-04-04T06:47:18.956Z,1.73
2019-04-04T06:49:46.399Z,2.37
2019-04-04T06:52:13.796Z,1.45
2019-04-04T06:54:41.206Z,1.42
2019-04-04T06:57:08.595Z,1.85
2019-04-04T06:59:36.461Z,2.20
2019-04-04T07:02:05.230Z,1.87
2019-04-04T07:04:31.917Z,1.08
2019-04-04T07:06:59.091Z,1.45
2019-04-04T07:09:25.784Z,1.27
2019-04-04T07:11:53.194Z,1.45
2019-04-04T07:14:20.601Z,1.15
2019-04-04T07:16:48.040Z,1.25
2019-04-04T07:19:15.439Z,1.10
2019-04-04T07:21:42.860Z,1.15
2019-04-04T07:24:10.247Z,1.30
2019-04-04T07:26:37.896Z,1.40
2019-04-04T07:31:39.122Z,1.70
2019-04-04T07:34:06.540Z,1.67
2019-04-04T07:36:33.990Z,1.23
2019-04-04T07:39:01.427Z,0.80
2019-04-04T07:41:28.922Z,0.90
2019-04-04T07:43:58.608Z,1.17
2019-04-04T07:46:23.773Z,0.98
2019-04-04T07:48:51.527Z,1.00
2019-04-04T07:51:18.671Z,1.00
2019-04-04T07:53:46.081Z,1.73
2019-04-04T07:56:14.354Z,1.00
2019-04-04T07:58:40.901Z,1.20
2019-04-04T08:01:08.300Z,1.20
2019-04-04T08:03:35.724Z,1.75
2019-04-04T08:06:03.135Z,1.52
2019-04-04T08:08:30.522Z,1.40
2019-04-04T08:10:57.972Z,1.55
2019-04-04T08:13:25.380Z,1.33
2019-04-04T08:15:52.851Z,1.95
2019-04-04T08:18:20.643Z,1.25
2019-04-04T08:20:48.042Z,4.18
2019-04-04T08:23:15.451Z,2.30
2019-04-04T08:25:42.869Z,3.75
2019-04-04T08:28:10.290Z,1.70
2019-04-04T08:30:37.683Z,2.95
2019-04-04T08:33:05.094Z,3.40
2019-04-04T08:35:32.507Z,2.40
2019-04-04T08:37:59.919Z,3.60
2019-04-04T08:40:27.338Z,4.95
2019-04-04T08:42:54.762Z,4.12
2019-04-04T08:45:22.143Z,4.53
2019-04-04T08:47:49.865Z,2.60
2019-04-04T08:50:17.320Z,2.92
2019-04-04T08:52:44.716Z,1.87
2019-04-04T08:55:12.121Z,1.90
2019-04-04T08:57:39.593Z,0.90
2019-04-04T09:00:07.009Z,1.45
2019-04-04T09:02:34.403Z,1.50
2019-04-04T09:05:11.982Z,1.58
2019-04-04T09:07:29.222Z,1.50
2019-04-04T09:09:56.721Z,0.93
2019-04-04T09:12:24.827Z,0.80
2019-04-04T09:14:52.225Z,0.90
2019-04-04T09:17:19.630Z,1.35
2019-04-04T09:19:47.024Z,0.77
2019-04-04T09:22:15.622Z,0.73
2019-04-04T09:24:42.999Z,1.15
2019-04-04T09:27:10.416Z,1.25
2019-04-04T09:29:37.899Z,0.90
2019-04-04T09:32:05.284Z,1.33
2019-04-04T09:34:32.677Z,0.90
2019-04-04T09:37:00.082Z,0.75
2019-04-04T09:39:27.520Z,0.70
2019-04-04T09:41:54.915Z,0.82
2019-04-04T09:44:22.343Z,0.77
2019-04-04T09:49:16.776Z,1.00
2019-04-04T09:54:11.127Z,1.00
2019-04-04T09:56:38.535Z,0.90
2019-04-04T09:59:05.935Z,1.50
2019-04-04T10:01:33.357Z,3.75
2019-04-04T10:04:00.760Z,2.20
2019-04-04T10:08:55.337Z,1.45
2019-04-04T10:11:23.255Z,1.40
2019-04-04T10:13:50.690Z,2.00
2019-04-04T10:16:18.108Z,2.30
2019-04-04T10:18:45.637Z,1.20
2019-04-04T10:21:13.060Z,1.10
2019-04-04T10:23:40.464Z,1.70
2019-04-04T10:26:07.950Z,1.00
2019-04-04T10:28:35.347Z,1.00
2019-04-04T10:31:02.762Z,1.40
2019-04-04T10:43:18.187Z,0.80
2019-04-04T10:45:45.643Z,1.40
2019-04-04T10:48:13.051Z,1.42
2019-04-04T11:00:35.317Z,1.30
2019-04-04T11:05:29.753Z,1.40
2019-04-04T11:12:51.180Z,1.60
2019-04-04T11:15:18.582Z,1.67
2019-04-04T11:17:45.982Z,2.80
2019-04-04T11:20:13.559Z,2.67
2019-04-04T11:22:40.941Z,1.70
2019-04-04T11:25:08.353Z,2.00
2019-04-04T11:27:35.744Z,1.65
2019-04-04T11:30:03.310Z,1.70
2019-04-04T11:32:30.711Z,1.60
2019-04-04T11:34:58.113Z,2.12
2019-04-04T11:37:26.501Z,1.40
2019-04-04T11:39:55.133Z,1.60
2019-04-04T11:42:21.331Z,2.37
2019-04-04T11:44:48.739Z,1.95
2019-04-04T11:47:16.140Z,2.05
2019-04-04T11:49:43.549Z,2.03
2019-04-04T11:52:10.939Z,2.30
2019-04-04T11:54:38.339Z,1.65
2019-04-04T11:57:05.747Z,1.40
2019-04-04T11:59:33.201Z,1.40
2019-04-04T12:02:00.639Z,1.67
2019-04-04T12:04:28.034Z,1.40
2019-04-04T12:06:55.438Z,1.50
2019-04-04T12:09:22.865Z,1.58
2019-04-04T12:11:50.429Z,1.37
2019-04-04T12:14:17.840Z,1.50
2019-04-04T12:16:45.240Z,1.40
2019-04-04T12:19:12.666Z,2.15
2019-04-04T12:21:40.110Z,2.30
2019-04-04T12:24:07.506Z,1.95
2019-04-04T12:26:34.937Z,1.55
2019-04-04T12:29:02.343Z,2.22
2019-04-04T12:31:29.824Z,2.62
2019-04-04T12:33:57.262Z,2.12
2019-04-04T12:36:25.174Z,2.40
2019-04-04T12:38:52.074Z,1.87
2019-04-04T12:41:19.476Z,1.37
2019-04-04T12:43:46.881Z,2.15
2019-04-04T12:46:14.284Z,2.47
2019-04-04T12:48:41.674Z,2.22
2019-04-04T12:51:09.101Z,1.37
2019-04-04T12:53:36.515Z,2.00
2019-04-04T12:56:04.598Z,1.97
2019-04-04T12:58:32.008Z,2.75
2019-04-04T13:00:59.503Z,1.95
2019-04-04T13:03:26.951Z,2.03
2019-04-04T13:05:54.406Z,2.42
2019-04-04T13:10:48.812Z,1.90
2019-04-04T13:18:10.163Z,1.87
2019-04-04T13:20:37.614Z,1.52
2019-04-04T13:23:05.036Z,1.30
2019-04-04T13:30:26.388Z,3.75
2019-04-04T13:32:53.801Z,2.03
2019-04-04T13:37:48.187Z,2.42
2019-04-04T13:40:15.612Z,2.17
2019-04-04T13:42:43.232Z,3.70
2019-04-04T13:45:10.642Z,1.90
2019-04-04T13:47:40.271Z,1.80
2019-04-04T13:50:06.056Z,2.00
2019-04-04T13:52:33.751Z,2.40
2019-04-04T13:55:01.149Z,2.80
2019-04-04T13:57:28.600Z,2.53
2019-04-04T13:59:56.065Z,1.83
2019-04-04T14:02:23.470Z,1.75
2019-04-04T14:04:51.004Z,1.80
2019-04-04T14:07:18.390Z,2.55
2019-04-04T14:09:45.804Z,1.73
2019-04-04T14:12:14.267Z,2.50
2019-04-04T14:14:40.607Z,2.15
2019-04-04T14:17:08.019Z,3.15
2019-04-04T14:19:35.419Z,2.40
2019-04-04T14:22:03.376Z,2.87
2019-04-04T14:24:30.772Z,3.00
2019-04-04T14:26:58.273Z,1.90
2019-04-04T14:29:27.782Z,2.47
2019-04-04T14:31:53.137Z,1.73
2019-04-04T14:34:20.552Z,2.03
2019-04-04T14:36:48.434Z,2.95
2019-04-04T14:39:15.852Z,2.95
2019-04-04T14:41:43.262Z,1.85
2019-04-04T14:44:10.675Z,2.17
2019-04-04T14:46:39.237Z,2.62
2019-04-04T14:49:05.522Z,1.98
2019-04-04T14:51:32.915Z,6.15
2019-04-04T14:54:00.323Z,2.28
2019-04-04T14:56:29.085Z,3.08
2019-04-04T14:58:55.147Z,2.50
2019-04-04T15:01:22.551Z,1.90
2019-04-04T15:03:50.028Z,3.10
2019-04-04T15:06:17.473Z,4.97
2019-04-04T15:08:44.899Z,2.40
2019-04-04T15:11:23.389Z,2.78
2019-04-04T15:13:39.711Z,2.35
2019-04-04T15:16:09.687Z,3.05
2019-04-04T15:18:36.409Z,2.72
2019-04-04T15:21:03.821Z,3.08
2019-04-04T15:23:31.231Z,2.20
2019-04-04T15:25:58.818Z,2.10
2019-04-04T15:28:26.285Z,2.67
2019-04-04T15:30:53.695Z,2.25
2019-04-04T15:33:21.102Z,1.83
2019-04-04T15:35:48.651Z,1.80
2019-04-04T15:38:16.053Z,2.20
2019-04-04T15:40:43.446Z,2.37
2019-04-04T15:43:10.867Z,2.03
2019-04-04T15:45:38.267Z,2.20
2019-04-04T15:48:05.725Z,1.75
2019-04-04T15:50:33.119Z,3.15
2019-04-04T15:53:00.567Z,2.17
2019-04-04T15:55:28.488Z,2.03
2019-04-04T15:57:55.891Z,1.37
2019-04-04T16:00:23.299Z,1.80
2019-04-04T16:02:50.720Z,2.47
2019-04-04T16:05:18.265Z,2.83
2019-04-04T16:07:45.662Z,2.83
2019-04-04T16:10:13.072Z,2.95
2019-04-04T16:12:40.472Z,2.80
2019-04-04T16:15:07.871Z,2.22
2019-04-04T16:17:35.390Z,1.80
2019-04-04T16:20:02.930Z,2.53
2019-04-04T16:22:30.432Z,1.65
2019-04-04T16:24:57.787Z,1.50
2019-04-04T16:27:25.170Z,2.53
2019-04-04T16:29:52.785Z,2.37
2019-04-04T16:32:20.189Z,2.92
2019-04-04T16:34:47.604Z,2.33
2019-04-04T16:37:15.580Z,2.50
2019-04-04T16:39:42.967Z,2.25
2019-04-04T16:42:10.550Z,2.90
2019-04-04T16:44:38.140Z,2.00
2019-04-04T16:47:05.750Z,2.15
2019-04-04T16:49:33.162Z,3.05
2019-04-04T16:52:00.562Z,2.75
2019-04-04T16:54:27.953Z,2.10
2019-04-04T16:56:55.351Z,1.87
2019-04-04T16:59:22.749Z,2.10
2019-04-04T17:01:50.326Z,1.67
2019-04-04T17:04:17.734Z,1.80
2019-04-04T17:06:45.145Z,1.52
2019-04-04T17:09:12.532Z,2.10
2019-04-04T17:11:40.002Z,2.03
2019-04-04T17:14:07.390Z,1.52
2019-04-04T17:16:34.811Z,2.30
2019-04-04T17:19:02.206Z,1.20
2019-04-04T17:21:29.603Z,2.10
2019-04-04T17:23:57.014Z,1.40
2019-04-04T17:26:24.451Z,1.77
2019-04-04T17:28:52.380Z,1.20
2019-04-04T17:31:19.457Z,1.40
2019-04-04T17:33:47.107Z,1.25
2019-04-04T17:36:14.396Z,2.00
2019-04-04T17:38:41.832Z,1.10
2019-04-04T17:41:09.239Z,1.77
2019-04-04T17:43:36.904Z,2.10
2019-04-04T17:46:04.491Z,2.10
2019-04-04T17:48:32.956Z,1.60
2019-04-04T17:50:59.711Z,1.50
2019-04-04T17:53:26.966Z,2.35
2019-04-04T17:55:55.437Z,1.92
2019-04-04T17:58:21.806Z,1.52
2019-04-04T18:00:48.893Z,1.80
2019-04-04T18:03:16.328Z,1.20
2019-04-04T18:05:43.740Z,2.15
2019-04-04T18:08:11.155Z,2.28
2019-04-04T18:10:38.563Z,2.00
2019-04-04T18:13:06.009Z,1.73
2019-04-04T18:15:33.417Z,2.00
2019-04-04T18:18:00.852Z,1.73
2019-04-04T18:20:28.265Z,2.20
2019-04-04T18:22:55.676Z,2.45
2019-04-04T18:25:23.076Z,1.70
2019-04-04T18:27:50.469Z,1.83
2019-04-04T18:30:17.990Z,1.83
2019-04-04T18:32:45.376Z,1.70
2019-04-04T18:35:12.928Z,1.95
2019-04-04T18:37:40.323Z,2.15
2019-04-04T18:40:07.673Z,1.73
2019-04-04T18:42:35.252Z,1.62
2019-04-04T18:45:02.769Z,1.40
2019-04-04T18:47:30.212Z,1.40
2019-04-04T18:49:57.629Z,1.40
2019-04-04T18:52:25.021Z,1.90
2019-04-04T18:54:52.436Z,1.50
2019-04-04T18:57:19.853Z,1.92
2019-04-04T18:59:47.290Z,2.33
2019-04-04T19:02:14.682Z,1.48
2019-04-04T19:04:42.195Z,1.80
2019-04-04T19:07:09.589Z,2.08
2019-04-04T19:09:37.008Z,1.50
2019-04-04T19:12:04.423Z,1.83
2019-04-04T19:14:31.854Z,1.85
2019-04-04T19:16:59.311Z,2.25
2019-04-04T19:19:26.723Z,1.40
2019-04-04T19:21:54.126Z,1.52
2019-04-04T19:24:21.551Z,1.55
2019-04-04T19:26:48.949Z,1.83
2019-04-04T19:29:16.578Z,1.45
2019-04-04T19:31:43.966Z,1.65
2019-04-04T19:34:11.351Z,1.52
2019-04-04T19:36:41.707Z,2.87
2019-04-04T19:39:06.284Z,1.50
2019-04-04T19:41:33.696Z,2.40
2019-04-04T19:44:01.111Z,2.78
2019-04-04T19:46:37.061Z,1.52
2019-04-04T19:48:55.952Z,1.40
2019-04-04T19:51:23.362Z,1.45
2019-04-04T19:53:50.777Z,2.42
2019-04-04T19:56:18.218Z,1.87
2019-04-04T19:58:45.653Z,1.83
2019-04-04T20:01:13.038Z,1.80
2019-04-04T20:03:40.479Z,2.15
2019-04-04T20:06:08.969Z,2.20
2019-04-04T20:08:36.355Z,2.12
2019-04-04T20:11:03.765Z,2.90
2019-04-04T20:13:31.538Z,2.55
2019-04-04T20:15:58.727Z,1.98
2019-04-04T20:18:26.124Z,3.78
2019-04-04T20:20:53.532Z,2.08
2019-04-04T20:23:20.947Z,2.60
2019-04-04T20:25:48.341Z,2.40
2019-04-04T20:28:15.809Z,2.00
2019-04-04T20:30:43.276Z,2.40
2019-04-04T20:33:10.642Z,2.50
2019-04-04T20:35:38.155Z,1.80
2019-04-04T20:38:05.595Z,2.37
2019-04-04T20:40:32.982Z,1.85
2019-04-04T20:43:00.404Z,3.08
2019-04-04T20:45:27.798Z,2.65
2019-04-04T20:47:55.207Z,2.85
2019-04-04T20:50:22.663Z,2.70
2019-04-04T20:52:50.223Z,3.95
2019-04-04T20:55:17.689Z,3.42
2019-04-04T20:57:45.151Z,3.40
2019-04-04T21:00:12.702Z,3.53
2019-04-04T21:02:40.107Z,3.05
2019-04-04T21:05:07.496Z,3.83
2019-04-04T21:07:34.906Z,3.80
2019-04-04T21:10:02.467Z,3.45
2019-04-04T21:12:29.979Z,3.35
2019-04-04T21:14:57.543Z,3.65
2019-04-04T21:17:24.950Z,3.42
2019-04-04T21:19:52.335Z,3.67
2019-04-04T21:22:27.402Z,3.85
2019-04-04T21:24:47.269Z,2.75
2019-04-04T21:27:14.826Z,3.53
2019-04-04T21:29:42.212Z,3.45
2019-04-04T21:32:09.609Z,4.00
2019-04-04T21:34:37.015Z,4.60
2019-04-04T21:37:04.499Z,3.20
2019-04-04T21:39:32.035Z,4.75
2019-04-04T21:41:59.431Z,5.47
2019-04-04T21:44:26.846Z,4.60
2019-04-04T21:46:54.252Z,4.15
2019-04-04T21:49:21.653Z,3.17
2019-04-04T21:51:49.070Z,4.07
2019-04-04T21:54:16.459Z,4.70
2019-04-04T21:56:43.885Z,4.40
2019-04-04T21:59:11.309Z,4.95
2019-04-04T22:01:38.724Z,4.90
2019-04-04T22:04:06.218Z,4.47
2019-04-04T22:06:33.634Z,4.07
2019-04-04T22:09:01.098Z,5.18
2019-04-04T22:11:28.534Z,5.07
2019-04-04T22:13:55.916Z,5.03
2019-04-04T22:16:23.363Z,6.15
2019-04-04T22:18:50.760Z,4.50
2019-04-04T22:21:18.179Z,4.65
2019-04-04T22:23:45.592Z,5.25
2019-04-04T22:26:13.187Z,4.95
2019-04-04T22:28:40.566Z,4.20
2019-04-04T22:31:08.870Z,4.10
2019-04-04T22:33:36.270Z,4.45
2019-04-04T22:36:03.687Z,5.50
2019-04-04T22:38:31.086Z,6.25
2019-04-04T22:40:58.539Z,5.10
2019-04-04T22:43:26.023Z,4.93
2019-04-04T22:45:53.464Z,4.40
2019-04-04T22:48:20.863Z,4.40
2019-04-04T22:50:48.257Z,4.50
2019-04-04T22:53:15.664Z,3.95
2019-04-04T22:55:43.062Z,3.83
2019-04-04T22:58:10.507Z,3.87
2019-04-04T23:00:37.916Z,4.35
2019-04-04T23:03:05.314Z,7.32
2019-04-04T23:05:32.731Z,5.28
2019-04-04T23:08:00.125Z,5.50
2019-04-04T23:10:27.530Z,5.65
2019-04-04T23:12:54.919Z,5.37
2019-04-04T23:15:22.322Z,5.10
2019-04-04T23:17:49.754Z,6.43
2019-04-04T23:20:17.445Z,4.07
2019-04-04T23:22:52.761Z,6.45
2019-04-04T23:25:12.244Z,5.45
2019-04-04T23:27:39.718Z,5.78
2019-04-04T23:30:07.644Z,6.15
2019-04-04T23:32:35.043Z,5.60
2019-04-04T23:35:02.457Z,6.55
2019-04-04T23:37:29.874Z,6.95
2019-04-04T23:39:57.505Z,6.43
2019-04-04T23:42:24.914Z,5.30
2019-04-04T23:45:00.754Z,5.72
2019-04-04T23:47:19.815Z,6.47
2019-04-04T23:49:47.220Z,5.15
2019-04-04T23:52:14.634Z,6.95
2019-04-04T23:54:42.042Z,5.53
2019-04-04T23:57:09.442Z,6.85
2019-04-04T23:59:36.848Z,6.87
